sensor_id;sensor_type;location;lat;lon;timestamp;temperature;humidity
75489;HTU21D;64069;46.396;48.102;2023-05-10T00:01:24;10.75;83.68
75489;HTU21D;64069;46.396;48.102;2023-05-10T00:03:57;10.77;83.34
75489;HTU21D;64069;46.396;48.102;2023-05-10T00:06:22;10.77;83.29
75489;HTU21D;64069;46.396;48.102;2023-05-10T00:08:54;10.77;83.32
75489;HTU21D;64069;46.396;48.102;2023-05-10T00:11:26;10.74;83.20
75489;HTU21D;64069;46.396;48.102;2023-05-10T00:14:12;10.74;83.43
75489;HTU21D;64069;46.396;48.102;2023-05-10T00:16:45;10.72;83.28
75489;HTU21D;64069;46.396;48.102;2023-05-10T00:19:11;10.71;83.55
75489;HTU21D;64069;46.396;48.102;2023-05-10T00:21:43;10.71;83.64
75489;HTU21D;64069;46.396;48.102;2023-05-10T00:24:15;10.69;83.68
75489;HTU21D;64069;46.396;48.102;2023-05-10T00:26:40;10.66;83.75
75489;HTU21D;64069;46.396;48.102;2023-05-10T00:29:13;10.63;84.00
75489;HTU21D;64069;46.396;48.102;2023-05-10T00:31:46;10.59;84.09
75489;HTU21D;64069;46.396;48.102;2023-05-10T00:34:12;10.57;84.23
75489;HTU21D;64069;46.396;48.102;2023-05-10T00:36:45;10.55;84.33
75489;HTU21D;64069;46.396;48.102;2023-05-10T00:39:18;10.51;84.35
75489;HTU21D;64069;46.396;48.102;2023-05-10T00:41:44;10.51;84.33
75489;HTU21D;64069;46.396;48.102;2023-05-10T00:44:16;10.51;84.50
75489;HTU21D;64069;46.396;48.102;2023-05-10T00:46:49;10.51;84.52
75489;HTU21D;64069;46.396;48.102;2023-05-10T00:49:22;10.46;84.43
75489;HTU21D;64069;46.396;48.102;2023-05-10T00:51:49;10.43;84.47
75489;HTU21D;64069;46.396;48.102;2023-05-10T00:54:22;10.42;84.57
75489;HTU21D;64069;46.396;48.102;2023-05-10T00:56:54;10.41;84.58
75489;HTU21D;64069;46.396;48.102;2023-05-10T00:59:20;10.40;84.64
75489;HTU21D;64069;46.396;48.102;2023-05-10T01:01:53;10.42;84.70
75489;HTU21D;64069;46.396;48.102;2023-05-10T01:04:26;10.40;84.68
75489;HTU21D;64069;46.396;48.102;2023-05-10T01:06:52;10.37;84.81
75489;HTU21D;64069;46.396;48.102;2023-05-10T01:09:26;10.37;84.90
75489;HTU21D;64069;46.396;48.102;2023-05-10T01:11:58;10.36;84.84
75489;HTU21D;64069;46.396;48.102;2023-05-10T01:14:39;10.37;84.76
75489;HTU21D;64069;46.396;48.102;2023-05-10T01:17:06;10.37;85.00
75489;HTU21D;64069;46.396;48.102;2023-05-10T01:19:40;10.39;84.87
75489;HTU21D;64069;46.396;48.102;2023-05-10T01:22:38;10.41;85.03
75489;HTU21D;64069;46.396;48.102;2023-05-10T01:28:30;10.45;84.90
75489;HTU21D;64069;46.396;48.102;2023-05-10T01:34:20;10.45;84.76
75489;HTU21D;64069;46.396;48.102;2023-05-10T01:37:05;10.45;84.73
75489;HTU21D;64069;46.396;48.102;2023-05-10T01:39:46;10.46;84.69
75489;HTU21D;64069;46.396;48.102;2023-05-10T01:42:25;10.48;84.64
75489;HTU21D;64069;46.396;48.102;2023-05-10T01:45:05;10.49;84.64
75489;HTU21D;64069;46.396;48.102;2023-05-10T01:48:03;10.53;84.61
75489;HTU21D;64069;46.396;48.102;2023-05-10T01:50:41;10.62;84.47
75489;HTU21D;64069;46.396;48.102;2023-05-10T01:53:18;10.65;84.41
75489;HTU21D;64069;46.396;48.102;2023-05-10T01:55:52;10.70;84.44
75489;HTU21D;64069;46.396;48.102;2023-05-10T01:58:31;10.75;84.58
75489;HTU21D;64069;46.396;48.102;2023-05-10T02:01:06;10.89;84.61
75489;HTU21D;64069;46.396;48.102;2023-05-10T02:03:34;11.05;84.32
75489;HTU21D;64069;46.396;48.102;2023-05-10T02:06:09;11.17;84.07
75489;HTU21D;64069;46.396;48.102;2023-05-10T02:08:43;11.28;84.00
75489;HTU21D;64069;46.396;48.102;2023-05-10T02:11:13;11.53;83.78
75489;HTU21D;64069;46.396;48.102;2023-05-10T02:13:53;11.82;83.30
75489;HTU21D;64069;46.396;48.102;2023-05-10T02:16:27;12.10;82.83
75489;HTU21D;64069;46.396;48.102;2023-05-10T02:18:57;12.35;82.42
75489;HTU21D;64069;46.396;48.102;2023-05-10T02:21:31;12.62;82.01
75489;HTU21D;64069;46.396;48.102;2023-05-10T02:24:06;12.89;81.62
75489;HTU21D;64069;46.396;48.102;2023-05-10T02:26:34;13.23;81.10
75489;HTU21D;64069;46.396;48.102;2023-05-10T02:29:08;13.54;80.51
75489;HTU21D;64069;46.396;48.102;2023-05-10T02:31:41;13.70;80.03
75489;HTU21D;64069;46.396;48.102;2023-05-10T02:34:10;13.84;79.90
75489;HTU21D;64069;46.396;48.102;2023-05-10T02:36:44;13.92;79.53
75489;HTU21D;64069;46.396;48.102;2023-05-10T02:39:18;14.12;79.32
75489;HTU21D;64069;46.396;48.102;2023-05-10T02:41:51;14.17;78.54
75489;HTU21D;64069;46.396;48.102;2023-05-10T02:44:19;14.23;78.40
75489;HTU21D;64069;46.396;48.102;2023-05-10T02:46:52;14.44;78.11
75489;HTU21D;64069;46.396;48.102;2023-05-10T02:49:24;14.63;77.52
75489;HTU21D;64069;46.396;48.102;2023-05-10T02:52:00;14.86;77.21
75489;HTU21D;64069;46.396;48.102;2023-05-10T02:54:44;15.13;76.76
75489;HTU21D;64069;46.396;48.102;2023-05-10T02:57:17;15.49;75.98
75489;HTU21D;64069;46.396;48.102;2023-05-10T02:59:55;15.73;75.62
75489;HTU21D;64069;46.396;48.102;2023-05-10T03:02:28;16.12;74.97
75489;HTU21D;64069;46.396;48.102;2023-05-10T03:05:02;16.29;73.91
75489;HTU21D;64069;46.396;48.102;2023-05-10T03:07:35;16.24;73.96
75489;HTU21D;64069;46.396;48.102;2023-05-10T03:10:01;16.30;73.90
75489;HTU21D;64069;46.396;48.102;2023-05-10T03:12:58;16.32;73.61
75489;HTU21D;64069;46.396;48.102;2023-05-10T03:16:07;16.37;73.21
75489;HTU21D;64069;46.396;48.102;2023-05-10T03:19:13;16.31;73.13
75489;HTU21D;64069;46.396;48.102;2023-05-10T03:21:50;16.54;72.95
75489;HTU21D;64069;46.396;48.102;2023-05-10T03:24:23;16.82;72.42
75489;HTU21D;64069;46.396;48.102;2023-05-10T03:27:00;17.11;71.80
75489;HTU21D;64069;46.396;48.102;2023-05-10T03:29:36;17.19;71.20
75489;HTU21D;64069;46.396;48.102;2023-05-10T03:32:03;17.19;71.30
75489;HTU21D;64069;46.396;48.102;2023-05-10T03:34:41;17.16;70.64
75489;HTU21D;64069;46.396;48.102;2023-05-10T03:37:14;17.15;70.96
75489;HTU21D;64069;46.396;48.102;2023-05-10T03:39:40;17.22;70.64
75489;HTU21D;64069;46.396;48.102;2023-05-10T03:42:08;17.32;70.57
75489;HTU21D;64069;46.396;48.102;2023-05-10T03:44:39;17.56;69.81
75489;HTU21D;64069;46.396;48.102;2023-05-10T03:47:05;17.72;69.45
75489;HTU21D;64069;46.396;48.102;2023-05-10T03:49:36;17.70;69.23
75489;HTU21D;64069;46.396;48.102;2023-05-10T03:52:03;17.81;69.29
75489;HTU21D;64069;46.396;48.102;2023-05-10T03:54:30;18.19;68.63
75489;HTU21D;64069;46.396;48.102;2023-05-10T03:56:58;18.23;67.84
75489;HTU21D;64069;46.396;48.102;2023-05-10T03:59:24;18.15;67.70
75489;HTU21D;64069;46.396;48.102;2023-05-10T04:01:51;17.99;67.16
75489;HTU21D;64069;46.396;48.102;2023-05-10T04:04:18;17.82;67.44
75489;HTU21D;64069;46.396;48.102;2023-05-10T04:06:48;17.79;66.81
75489;HTU21D;64069;46.396;48.102;2023-05-10T04:09:14;17.89;66.91
75489;HTU21D;64069;46.396;48.102;2023-05-10T04:11:41;18.04;66.33
75489;HTU21D;64069;46.396;48.102;2023-05-10T04:14:08;18.11;66.27
75489;HTU21D;64069;46.396;48.102;2023-05-10T04:16:35;18.18;65.57
75489;HTU21D;64069;46.396;48.102;2023-05-10T04:19:01;18.15;65.87
75489;HTU21D;64069;46.396;48.102;2023-05-10T04:21:29;18.26;65.49
75489;HTU21D;64069;46.396;48.102;2023-05-10T04:23:55;18.22;65.16
75489;HTU21D;64069;46.396;48.102;2023-05-10T04:26:22;18.25;64.88
75489;HTU21D;64069;46.396;48.102;2023-05-10T04:28:48;18.26;64.92
75489;HTU21D;64069;46.396;48.102;2023-05-10T04:31:15;18.27;64.45
75489;HTU21D;64069;46.396;48.102;2023-05-10T04:33:43;18.25;64.23
75489;HTU21D;64069;46.396;48.102;2023-05-10T04:36:09;18.21;63.82
75489;HTU21D;64069;46.396;48.102;2023-05-10T04:38:35;18.15;63.74
75489;HTU21D;64069;46.396;48.102;2023-05-10T04:41:09;18.18;63.31
75489;HTU21D;64069;46.396;48.102;2023-05-10T04:43:35;18.13;63.41
75489;HTU21D;64069;46.396;48.102;2023-05-10T04:46:02;18.20;63.32
75489;HTU21D;64069;46.396;48.102;2023-05-10T04:48:28;18.27;62.99
75489;HTU21D;64069;46.396;48.102;2023-05-10T04:50:54;18.39;62.96
75489;HTU21D;64069;46.396;48.102;2023-05-10T04:53:21;18.57;62.48
75489;HTU21D;64069;46.396;48.102;2023-05-10T04:55:46;18.73;62.12
75489;HTU21D;64069;46.396;48.102;2023-05-10T04:58:13;18.81;61.82
75489;HTU21D;64069;46.396;48.102;2023-05-10T05:00:39;18.83;61.35
75489;HTU21D;64069;46.396;48.102;2023-05-10T05:03:05;18.80;61.22
75489;HTU21D;64069;46.396;48.102;2023-05-10T05:05:31;18.89;61.05
75489;HTU21D;64069;46.396;48.102;2023-05-10T05:07:57;18.95;60.72
75489;HTU21D;64069;46.396;48.102;2023-05-10T05:10:23;18.99;60.60
75489;HTU21D;64069;46.396;48.102;2023-05-10T05:12:49;19.03;60.42
75489;HTU21D;64069;46.396;48.102;2023-05-10T05:15:15;19.12;60.08
75489;HTU21D;64069;46.396;48.102;2023-05-10T05:17:43;19.28;59.41
75489;HTU21D;64069;46.396;48.102;2023-05-10T05:20:09;19.66;58.89
75489;HTU21D;64069;46.396;48.102;2023-05-10T05:22:36;19.99;57.74
75489;HTU21D;64069;46.396;48.102;2023-05-10T05:25:02;19.98;57.31
75489;HTU21D;64069;46.396;48.102;2023-05-10T05:27:29;19.88;56.75
75489;HTU21D;64069;46.396;48.102;2023-05-10T05:29:57;19.68;56.64
75489;HTU21D;64069;46.396;48.102;2023-05-10T05:32:23;19.51;56.59
75489;HTU21D;64069;46.396;48.102;2023-05-10T05:34:50;19.48;56.48
75489;HTU21D;64069;46.396;48.102;2023-05-10T05:37:18;19.56;56.36
75489;HTU21D;64069;46.396;48.102;2023-05-10T05:39:44;19.56;56.10
75489;HTU21D;64069;46.396;48.102;2023-05-10T05:42:11;19.62;56.05
75489;HTU21D;64069;46.396;48.102;2023-05-10T05:44:38;19.81;55.36
75489;HTU21D;64069;46.396;48.102;2023-05-10T05:47:05;19.74;55.19
75489;HTU21D;64069;46.396;48.102;2023-05-10T05:49:31;19.81;55.15
75489;HTU21D;64069;46.396;48.102;2023-05-10T05:52:03;19.79;55.24
75489;HTU21D;64069;46.396;48.102;2023-05-10T05:54:30;19.83;55.33
75489;HTU21D;64069;46.396;48.102;2023-05-10T05:57:00;19.94;55.40
75489;HTU21D;64069;46.396;48.102;2023-05-10T05:59:26;20.11;55.11
75489;HTU21D;64069;46.396;48.102;2023-05-10T06:01:52;20.35;54.55
75489;HTU21D;64069;46.396;48.102;2023-05-10T06:04:19;20.37;54.07
75489;HTU21D;64069;46.396;48.102;2023-05-10T06:06:45;20.37;54.16
75489;HTU21D;64069;46.396;48.102;2023-05-10T06:09:11;20.34;54.21
75489;HTU21D;64069;46.396;48.102;2023-05-10T06:11:37;20.29;53.72
75489;HTU21D;64069;46.396;48.102;2023-05-10T06:14:04;20.29;54.05
75489;HTU21D;64069;46.396;48.102;2023-05-10T06:16:30;20.28;53.65
75489;HTU21D;64069;46.396;48.102;2023-05-10T06:18:57;20.31;53.57
75489;HTU21D;64069;46.396;48.102;2023-05-10T06:21:23;20.53;53.52
75489;HTU21D;64069;46.396;48.102;2023-05-10T06:23:48;20.73;52.34
75489;HTU21D;64069;46.396;48.102;2023-05-10T06:26:15;20.68;52.41
75489;HTU21D;64069;46.396;48.102;2023-05-10T06:28:40;20.88;52.39
75489;HTU21D;64069;46.396;48.102;2023-05-10T06:31:07;20.99;52.26
75489;HTU21D;64069;46.396;48.102;2023-05-10T06:33:33;21.06;51.93
75489;HTU21D;64069;46.396;48.102;2023-05-10T06:35:59;21.11;51.97
75489;HTU21D;64069;46.396;48.102;2023-05-10T06:38:25;21.11;52.07
75489;HTU21D;64069;46.396;48.102;2023-05-10T06:40:51;21.18;51.70
75489;HTU21D;64069;46.396;48.102;2023-05-10T06:43:18;21.25;51.74
75489;HTU21D;64069;46.396;48.102;2023-05-10T06:45:44;21.37;51.32
75489;HTU21D;64069;46.396;48.102;2023-05-10T06:48:11;21.50;51.26
75489;HTU21D;64069;46.396;48.102;2023-05-10T06:50:36;21.61;51.30
75489;HTU21D;64069;46.396;48.102;2023-05-10T06:53:02;21.77;51.04
75489;HTU21D;64069;46.396;48.102;2023-05-10T06:55:29;22.01;50.73
75489;HTU21D;64069;46.396;48.102;2023-05-10T06:57:55;22.17;50.32
75489;HTU21D;64069;46.396;48.102;2023-05-10T07:00:21;22.32;49.92
75489;HTU21D;64069;46.396;48.102;2023-05-10T07:02:47;22.48;49.63
75489;HTU21D;64069;46.396;48.102;2023-05-10T07:05:13;22.62;49.15
75489;HTU21D;64069;46.396;48.102;2023-05-10T07:07:39;22.57;48.64
75489;HTU21D;64069;46.396;48.102;2023-05-10T07:10:06;22.31;49.03
75489;HTU21D;64069;46.396;48.102;2023-05-10T07:12:33;22.19;49.31
75489;HTU21D;64069;46.396;48.102;2023-05-10T07:14:58;22.21;49.25
75489;HTU21D;64069;46.396;48.102;2023-05-10T07:17:24;22.53;49.08
75489;HTU21D;64069;46.396;48.102;2023-05-10T07:19:51;22.67;48.24
75489;HTU21D;64069;46.396;48.102;2023-05-10T07:22:17;22.48;48.03
75489;HTU21D;64069;46.396;48.102;2023-05-10T07:24:43;22.44;48.29
75489;HTU21D;64069;46.396;48.102;2023-05-10T07:27:09;22.56;48.18
75489;HTU21D;64069;46.396;48.102;2023-05-10T07:29:35;22.69;47.78
75489;HTU21D;64069;46.396;48.102;2023-05-10T07:32:01;22.68;47.36
75489;HTU21D;64069;46.396;48.102;2023-05-10T07:34:27;22.70;47.76
75489;HTU21D;64069;46.396;48.102;2023-05-10T07:36:57;22.83;47.33
75489;HTU21D;64069;46.396;48.102;2023-05-10T07:39:23;22.83;47.28
75489;HTU21D;64069;46.396;48.102;2023-05-10T07:41:49;22.84;47.18
75489;HTU21D;64069;46.396;48.102;2023-05-10T07:44:15;22.92;47.06
75489;HTU21D;64069;46.396;48.102;2023-05-10T07:46:43;23.25;46.36
75489;HTU21D;64069;46.396;48.102;2023-05-10T07:49:09;23.39;46.09
75489;HTU21D;64069;46.396;48.102;2023-05-10T07:51:35;23.38;46.03
75489;HTU21D;64069;46.396;48.102;2023-05-10T07:54:02;23.32;45.70
75489;HTU21D;64069;46.396;48.102;2023-05-10T07:56:30;23.38;45.76
75489;HTU21D;64069;46.396;48.102;2023-05-10T07:59:01;23.62;45.80
75489;HTU21D;64069;46.396;48.102;2023-05-10T08:01:31;23.58;45.16
75489;HTU21D;64069;46.396;48.102;2023-05-10T08:03:57;23.47;44.90
75489;HTU21D;64069;46.396;48.102;2023-05-10T08:06:27;23.41;45.38
75489;HTU21D;64069;46.396;48.102;2023-05-10T08:08:55;23.76;45.14
75489;HTU21D;64069;46.396;48.102;2023-05-10T08:11:21;24.23;44.26
75489;HTU21D;64069;46.396;48.102;2023-05-10T08:13:49;24.29;43.93
75489;HTU21D;64069;46.396;48.102;2023-05-10T08:16:15;24.19;43.81
75489;HTU21D;64069;46.396;48.102;2023-05-10T08:18:41;24.02;44.29
75489;HTU21D;64069;46.396;48.102;2023-05-10T08:21:07;23.86;44.19
75489;HTU21D;64069;46.396;48.102;2023-05-10T08:23:33;24.00;43.84
75489;HTU21D;64069;46.396;48.102;2023-05-10T08:25:59;23.80;43.89
75489;HTU21D;64069;46.396;48.102;2023-05-10T08:28:25;23.69;43.92
75489;HTU21D;64069;46.396;48.102;2023-05-10T08:30:55;23.49;44.25
75489;HTU21D;64069;46.396;48.102;2023-05-10T08:33:21;23.56;44.38
75489;HTU21D;64069;46.396;48.102;2023-05-10T08:35:47;23.89;44.07
75489;HTU21D;64069;46.396;48.102;2023-05-10T08:38:13;24.26;43.22
75489;HTU21D;64069;46.396;48.102;2023-05-10T08:40:42;24.49;42.80
75489;HTU21D;64069;46.396;48.102;2023-05-10T08:43:10;24.72;42.41
75489;HTU21D;64069;46.396;48.102;2023-05-10T08:45:43;24.86;41.95
75489;HTU21D;64069;46.396;48.102;2023-05-10T08:48:14;25.01;41.83
75489;HTU21D;64069;46.396;48.102;2023-05-10T08:50:41;25.04;40.88
75489;HTU21D;64069;46.396;48.102;2023-05-10T08:53:12;25.18;40.79
75489;HTU21D;64069;46.396;48.102;2023-05-10T08:55:39;25.44;40.55
75489;HTU21D;64069;46.396;48.102;2023-05-10T08:58:08;25.47;40.28
75489;HTU21D;64069;46.396;48.102;2023-05-10T09:00:35;25.54;40.30
75489;HTU21D;64069;46.396;48.102;2023-05-10T09:03:04;25.80;39.97
75489;HTU21D;64069;46.396;48.102;2023-05-10T09:05:30;25.90;39.72
75489;HTU21D;64069;46.396;48.102;2023-05-10T09:07:56;25.83;39.62
75489;HTU21D;64069;46.396;48.102;2023-05-10T09:10:27;25.80;39.65
75489;HTU21D;64069;46.396;48.102;2023-05-10T09:12:56;25.57;39.52
75489;HTU21D;64069;46.396;48.102;2023-05-10T09:15:22;25.59;39.90
75489;HTU21D;64069;46.396;48.102;2023-05-10T09:17:49;25.46;39.07
75489;HTU21D;64069;46.396;48.102;2023-05-10T09:20:15;25.22;39.59
75489;HTU21D;64069;46.396;48.102;2023-05-10T09:22:43;25.10;39.83
75489;HTU21D;64069;46.396;48.102;2023-05-10T09:25:15;25.05;39.88
75489;HTU21D;64069;46.396;48.102;2023-05-10T09:27:45;25.33;39.64
75489;HTU21D;64069;46.396;48.102;2023-05-10T09:30:16;25.35;39.69
75489;HTU21D;64069;46.396;48.102;2023-05-10T09:32:46;25.61;39.53
75489;HTU21D;64069;46.396;48.102;2023-05-10T09:35:21;25.82;39.10
75489;HTU21D;64069;46.396;48.102;2023-05-10T09:37:49;25.95;38.51
75489;HTU21D;64069;46.396;48.102;2023-05-10T09:40:26;25.80;38.43
75489;HTU21D;64069;46.396;48.102;2023-05-10T09:45:31;25.49;39.19
75489;HTU21D;64069;46.396;48.102;2023-05-10T09:47:58;25.27;39.65
75489;HTU21D;64069;46.396;48.102;2023-05-10T09:50:25;25.15;39.63
75489;HTU21D;64069;46.396;48.102;2023-05-10T09:52:56;25.03;39.59
75489;HTU21D;64069;46.396;48.102;2023-05-10T09:55:46;25.09;39.39
75489;HTU21D;64069;46.396;48.102;2023-05-10T09:58:13;25.09;39.23
75489;HTU21D;64069;46.396;48.102;2023-05-10T10:00:42;24.97;39.43
75489;HTU21D;64069;46.396;48.102;2023-05-10T10:03:14;24.89;39.37
75489;HTU21D;64069;46.396;48.102;2023-05-10T10:05:41;24.87;39.28
75489;HTU21D;64069;46.396;48.102;2023-05-10T10:08:17;25.06;39.18
75489;HTU21D;64069;46.396;48.102;2023-05-10T10:10:43;25.24;38.95
75489;HTU21D;64069;46.396;48.102;2023-05-10T10:13:18;25.01;38.81
75489;HTU21D;64069;46.396;48.102;2023-05-10T10:15:44;24.89;39.19
75489;HTU21D;64069;46.396;48.102;2023-05-10T10:18:14;24.98;39.07
75489;HTU21D;64069;46.396;48.102;2023-05-10T10:20:43;25.03;39.04
75489;HTU21D;64069;46.396;48.102;2023-05-10T10:23:18;24.94;39.07
75489;HTU21D;64069;46.396;48.102;2023-05-10T10:25:45;25.01;38.98
75489;HTU21D;64069;46.396;48.102;2023-05-10T10:28:30;25.03;38.85
75489;HTU21D;64069;46.396;48.102;2023-05-10T10:31:13;24.83;38.98
75489;HTU21D;64069;46.396;48.102;2023-05-10T10:34:11;24.93;39.27
75489;HTU21D;64069;46.396;48.102;2023-05-10T10:36:46;24.80;39.46
75489;HTU21D;64069;46.396;48.102;2023-05-10T10:39:13;24.70;39.47
75489;HTU21D;64069;46.396;48.102;2023-05-10T10:41:53;24.68;39.52
75489;HTU21D;64069;46.396;48.102;2023-05-10T10:47:21;24.86;39.12
75489;HTU21D;64069;46.396;48.102;2023-05-10T10:50:03;24.82;38.94
75489;HTU21D;64069;46.396;48.102;2023-05-10T10:52:41;24.56;39.20
75489;HTU21D;64069;46.396;48.102;2023-05-10T10:55:19;24.42;39.50
75489;HTU21D;64069;46.396;48.102;2023-05-10T10:57:55;24.28;39.61
75489;HTU21D;64069;46.396;48.102;2023-05-10T11:00:29;24.35;39.52
75489;HTU21D;64069;46.396;48.102;2023-05-10T11:03:12;24.55;39.17
75489;HTU21D;64069;46.396;48.102;2023-05-10T11:05:53;24.72;38.74
75489;HTU21D;64069;46.396;48.102;2023-05-10T11:13:30;24.25;39.55
75489;HTU21D;64069;46.396;48.102;2023-05-10T11:15:56;24.16;39.94
75489;HTU21D;64069;46.396;48.102;2023-05-10T11:18:29;24.17;40.07
75489;HTU21D;64069;46.396;48.102;2023-05-10T11:21:00;24.01;40.17
75489;HTU21D;64069;46.396;48.102;2023-05-10T11:23:54;24.10;40.25
75489;HTU21D;64069;46.396;48.102;2023-05-10T11:26:25;24.05;40.13
75489;HTU21D;64069;46.396;48.102;2023-05-10T11:28:53;23.83;40.35
75489;HTU21D;64069;46.396;48.102;2023-05-10T11:31:24;23.52;41.00
75489;HTU21D;64069;46.396;48.102;2023-05-10T11:33:56;23.26;41.07
75489;HTU21D;64069;46.396;48.102;2023-05-10T11:36:24;23.14;41.32
75489;HTU21D;64069;46.396;48.102;2023-05-10T11:38:52;23.34;41.39
75489;HTU21D;64069;46.396;48.102;2023-05-10T11:41:19;23.57;40.88
75489;HTU21D;64069;46.396;48.102;2023-05-10T11:43:50;23.84;40.59
75489;HTU21D;64069;46.396;48.102;2023-05-10T11:46:18;24.16;40.09
75489;HTU21D;64069;46.396;48.102;2023-05-10T11:48:47;24.27;39.58
75489;HTU21D;64069;46.396;48.102;2023-05-10T11:51:14;24.33;39.27
75489;HTU21D;64069;46.396;48.102;2023-05-10T11:53:41;24.34;39.19
75489;HTU21D;64069;46.396;48.102;2023-05-10T11:56:11;24.28;39.01
75489;HTU21D;64069;46.396;48.102;2023-05-10T11:58:38;24.16;39.15
75489;HTU21D;64069;46.396;48.102;2023-05-10T12:01:06;23.98;39.25
75489;HTU21D;64069;46.396;48.102;2023-05-10T12:03:33;23.71;39.16
75489;HTU21D;64069;46.396;48.102;2023-05-10T12:06:00;23.52;39.56
75489;HTU21D;64069;46.396;48.102;2023-05-10T12:08:30;23.46;39.72
75489;HTU21D;64069;46.396;48.102;2023-05-10T12:11:09;23.61;39.51
75489;HTU21D;64069;46.396;48.102;2023-05-10T12:13:44;23.82;39.24
75489;HTU21D;64069;46.396;48.102;2023-05-10T12:16:21;23.84;38.59
75489;HTU21D;64069;46.396;48.102;2023-05-10T12:18:51;23.65;38.63
75489;HTU21D;64069;46.396;48.102;2023-05-10T12:21:19;23.47;39.01
75489;HTU21D;64069;46.396;48.102;2023-05-10T12:23:46;23.39;38.78
75489;HTU21D;64069;46.396;48.102;2023-05-10T12:26:16;23.41;38.61
75489;HTU21D;64069;46.396;48.102;2023-05-10T12:28:42;23.37;38.72
75489;HTU21D;64069;46.396;48.102;2023-05-10T12:31:12;23.41;38.68
75489;HTU21D;64069;46.396;48.102;2023-05-10T12:33:42;23.38;38.46
75489;HTU21D;64069;46.396;48.102;2023-05-10T12:36:10;23.34;38.72
75489;HTU21D;64069;46.396;48.102;2023-05-10T12:38:38;23.55;38.46
75489;HTU21D;64069;46.396;48.102;2023-05-10T12:41:17;23.72;38.09
75489;HTU21D;64069;46.396;48.102;2023-05-10T12:43:44;23.88;38.14
75489;HTU21D;64069;46.396;48.102;2023-05-10T12:46:14;24.01;37.73
75489;HTU21D;64069;46.396;48.102;2023-05-10T12:48:41;23.99;38.01
75489;HTU21D;64069;46.396;48.102;2023-05-10T12:51:08;24.01;37.95
75489;HTU21D;64069;46.396;48.102;2023-05-10T12:53:39;24.00;37.74
75489;HTU21D;64069;46.396;48.102;2023-05-10T12:56:05;23.92;38.02
75489;HTU21D;64069;46.396;48.102;2023-05-10T12:58:31;23.69;38.33
75489;HTU21D;64069;46.396;48.102;2023-05-10T13:00:59;23.53;38.53
75489;HTU21D;64069;46.396;48.102;2023-05-10T13:03:25;23.44;38.28
75489;HTU21D;64069;46.396;48.102;2023-05-10T13:05:54;23.31;38.24
75489;HTU21D;64069;46.396;48.102;2023-05-10T13:08:20;23.30;38.26
75489;HTU21D;64069;46.396;48.102;2023-05-10T13:10:46;23.34;38.25
75489;HTU21D;64069;46.396;48.102;2023-05-10T13:13:12;23.41;38.36
75489;HTU21D;64069;46.396;48.102;2023-05-10T13:15:38;23.41;38.51
75489;HTU21D;64069;46.396;48.102;2023-05-10T13:18:03;23.39;38.32
75489;HTU21D;64069;46.396;48.102;2023-05-10T13:20:29;23.35;38.36
75489;HTU21D;64069;46.396;48.102;2023-05-10T13:23:00;23.35;38.75
75489;HTU21D;64069;46.396;48.102;2023-05-10T13:25:26;23.27;38.92
75489;HTU21D;64069;46.396;48.102;2023-05-10T13:27:52;23.17;39.10
75489;HTU21D;64069;46.396;48.102;2023-05-10T13:30:18;23.09;39.40
75489;HTU21D;64069;46.396;48.102;2023-05-10T13:33:03;23.08;39.78
75489;HTU21D;64069;46.396;48.102;2023-05-10T13:35:29;23.03;39.96
75489;HTU21D;64069;46.396;48.102;2023-05-10T13:40:43;22.90;40.43
75489;HTU21D;64069;46.396;48.102;2023-05-10T13:43:28;22.84;40.37
75489;HTU21D;64069;46.396;48.102;2023-05-10T13:46:12;22.83;40.50
75489;HTU21D;64069;46.396;48.102;2023-05-10T13:49:01;22.90;40.71
75489;HTU21D;64069;46.396;48.102;2023-05-10T13:51:27;22.96;40.73
75489;HTU21D;64069;46.396;48.102;2023-05-10T13:53:56;22.96;40.68
75489;HTU21D;64069;46.396;48.102;2023-05-10T13:56:22;22.96;40.90
75489;HTU21D;64069;46.396;48.102;2023-05-10T13:58:48;22.91;41.21
75489;HTU21D;64069;46.396;48.102;2023-05-10T14:06:43;22.67;41.60
75489;HTU21D;64069;46.396;48.102;2023-05-10T14:09:09;22.65;41.82
75489;HTU21D;64069;46.396;48.102;2023-05-10T14:12:12;22.60;41.83
75489;HTU21D;64069;46.396;48.102;2023-05-10T14:14:42;22.52;41.94
75489;HTU21D;64069;46.396;48.102;2023-05-10T14:20:11;22.49;42.23
75489;HTU21D;64069;46.396;48.102;2023-05-10T14:30:51;22.16;43.23
75489;HTU21D;64069;46.396;48.102;2023-05-10T14:33:35;22.01;43.61
75489;HTU21D;64069;46.396;48.102;2023-05-10T14:36:02;21.90;43.91
75489;HTU21D;64069;46.396;48.102;2023-05-10T14:38:47;21.80;43.86
75489;HTU21D;64069;46.396;48.102;2023-05-10T14:41:13;21.75;43.95
75489;HTU21D;64069;46.396;48.102;2023-05-10T14:43:40;21.69;43.92
75489;HTU21D;64069;46.396;48.102;2023-05-10T14:46:07;21.64;44.00
75489;HTU21D;64069;46.396;48.102;2023-05-10T14:48:34;21.61;44.09
75489;HTU21D;64069;46.396;48.102;2023-05-10T14:51:00;21.60;44.09
75489;HTU21D;64069;46.396;48.102;2023-05-10T14:53:44;21.53;43.91
75489;HTU21D;64069;46.396;48.102;2023-05-10T14:56:10;21.48;43.78
75489;HTU21D;64069;46.396;48.102;2023-05-10T15:01:39;21.40;43.65
75489;HTU21D;64069;46.396;48.102;2023-05-10T15:12:24;21.16;43.88
75489;HTU21D;64069;46.396;48.102;2023-05-10T15:14:50;21.11;43.86
75489;HTU21D;64069;46.396;48.102;2023-05-10T15:17:16;21.08;44.05
75489;HTU21D;64069;46.396;48.102;2023-05-10T15:19:42;21.04;44.04
75489;HTU21D;64069;46.396;48.102;2023-05-10T15:25:29;20.92;44.36
75489;HTU21D;64069;46.396;48.102;2023-05-10T15:28:14;20.86;44.60
75489;HTU21D;64069;46.396;48.102;2023-05-10T15:33:48;20.70;45.11
75489;HTU21D;64069;46.396;48.102;2023-05-10T15:36:14;20.64;45.33
75489;HTU21D;64069;46.396;48.102;2023-05-10T15:38:58;20.58;45.57
75489;HTU21D;64069;46.396;48.102;2023-05-10T15:41:24;20.54;45.78
75489;HTU21D;64069;46.396;48.102;2023-05-10T15:43:50;20.47;46.08
75489;HTU21D;64069;46.396;48.102;2023-05-10T15:46:20;20.42;46.40
75489;HTU21D;64069;46.396;48.102;2023-05-10T15:49:04;20.34;46.67
75489;HTU21D;64069;46.396;48.102;2023-05-10T15:51:31;20.27;46.99
75489;HTU21D;64069;46.396;48.102;2023-05-10T15:53:58;20.17;47.33
75489;HTU21D;64069;46.396;48.102;2023-05-10T15:56:24;20.07;47.73
75489;HTU21D;64069;46.396;48.102;2023-05-10T15:59:12;19.98;48.10
75489;HTU21D;64069;46.396;48.102;2023-05-10T16:01:57;19.90;48.32
75489;HTU21D;64069;46.396;48.102;2023-05-10T16:04:41;19.81;48.50
75489;HTU21D;64069;46.396;48.102;2023-05-10T16:09:53;19.62;49.01
75489;HTU21D;64069;46.396;48.102;2023-05-10T16:15:05;19.44;49.50
75489;HTU21D;64069;46.396;48.102;2023-05-10T16:17:32;19.35;49.77
75489;HTU21D;64069;46.396;48.102;2023-05-10T16:19:59;19.25;50.07
75489;HTU21D;64069;46.396;48.102;2023-05-10T16:22:25;19.20;50.33